createdAt,value
2019-03-19T00:01:28.125Z,14.50
2019-03-19T00:04:05.927Z,13.63
2019-03-19T00:06:46.032Z,13.50
2019-03-19T00:09:26.242Z,13.73
2019-03-19T00:12:06.304Z,14.80
2019-03-19T00:14:52.131Z,15.43
2019-03-19T00:17:27.009Z,13.93
2019-03-19T00:20:07.685Z,13.20
2019-03-19T00:22:42.358Z,13.60
2019-03-19T00:25:30.064Z,13.57
2019-03-19T00:28:07.437Z,12.67
2019-03-19T00:30:54.292Z,12.80
2019-03-19T00:33:40.343Z,11.53
2019-03-19T00:36:30.097Z,11.67
2019-03-19T00:39:10.397Z,10.80
2019-03-19T00:41:58.971Z,9.83
2019-03-19T00:44:40.536Z,10.23
2019-03-19T00:47:22.215Z,9.97
2019-03-19T00:50:06.807Z,9.90
2019-03-19T00:52:50.936Z,10.80
2019-03-19T00:55:39.823Z,11.37
2019-03-19T00:58:11.701Z,11.17
2019-03-19T01:00:53.951Z,11.13
2019-03-19T01:03:39.582Z,10.80
2019-03-19T01:06:43.422Z,10.93
2019-03-19T01:09:31.564Z,10.13
2019-03-19T01:12:11.828Z,11.40
2019-03-19T01:14:50.735Z,10.57
2019-03-19T01:17:30.622Z,10.47
2019-03-19T01:20:09.407Z,10.17
2019-03-19T01:22:48.972Z,10.50
2019-03-19T01:25:29.587Z,9.90
2019-03-19T01:28:07.266Z,10.47
2019-03-19T01:37:40.997Z,9.00
2019-03-19T01:40:14.921Z,9.10
2019-03-19T01:42:53.636Z,9.53
2019-03-19T01:45:29.626Z,9.63
2019-03-19T01:48:04.395Z,8.43
2019-03-19T01:50:44.152Z,8.80
2019-03-19T01:53:19.888Z,9.07
2019-03-19T01:55:47.594Z,10.23
2019-03-19T01:58:18.308Z,9.10
2019-03-19T02:00:46.268Z,8.87
2019-03-19T02:03:14.014Z,8.37
2019-03-19T02:05:41.610Z,8.63
2019-03-19T02:08:10.652Z,9.00
2019-03-19T02:10:38.290Z,9.17
2019-03-19T02:13:06.034Z,8.17
2019-03-19T02:15:34.514Z,8.73
2019-03-19T02:18:05.147Z,8.53
2019-03-19T02:20:38.910Z,8.23
2019-03-19T02:23:09.734Z,9.27
2019-03-19T02:25:38.212Z,8.00
2019-03-19T02:28:06.157Z,8.97
2019-03-19T02:30:34.530Z,8.07
2019-03-19T02:33:06.117Z,8.43
2019-03-19T02:35:33.754Z,8.90
2019-03-19T02:38:01.423Z,8.20
2019-03-19T02:40:29.096Z,9.33
2019-03-19T02:42:56.857Z,8.60
2019-03-19T02:45:24.479Z,8.30
2019-03-19T02:47:52.109Z,8.20
2019-03-19T02:50:20.323Z,7.93
2019-03-19T02:52:48.104Z,7.77
2019-03-19T02:55:16.419Z,8.30
2019-03-19T02:57:44.095Z,9.07
2019-03-19T03:00:11.818Z,7.70
2019-03-19T03:02:39.716Z,8.20
2019-03-19T03:05:08.643Z,8.57
2019-03-19T03:07:36.238Z,8.03
2019-03-19T03:10:04.625Z,8.30
2019-03-19T03:12:32.321Z,8.73
2019-03-19T03:14:59.953Z,9.07
2019-03-19T03:17:28.262Z,8.23
2019-03-19T03:19:55.859Z,8.47
2019-03-19T03:22:23.480Z,8.60
2019-03-19T03:24:51.107Z,8.27
2019-03-19T03:27:18.815Z,8.60
2019-03-19T03:29:48.944Z,8.93
2019-03-19T03:32:16.624Z,8.73
2019-03-19T03:34:44.281Z,8.70
2019-03-19T03:37:11.975Z,8.10
2019-03-19T03:39:40.804Z,8.73
2019-03-19T03:42:09.622Z,8.67
2019-03-19T03:44:39.855Z,8.50
2019-03-19T03:47:07.443Z,8.33
2019-03-19T03:49:35.057Z,8.77
2019-03-19T03:52:04.093Z,8.40
2019-03-19T03:54:31.800Z,8.57
2019-03-19T03:57:02.515Z,8.97
2019-03-19T03:59:28.923Z,7.50
2019-03-19T04:01:56.525Z,7.83
2019-03-19T04:04:27.238Z,8.30
2019-03-19T04:06:54.900Z,8.50
2019-03-19T04:09:24.144Z,7.97
2019-03-19T04:11:51.857Z,7.73
2019-03-19T04:14:19.532Z,8.60
2019-03-19T04:16:47.270Z,8.37
2019-03-19T04:19:14.891Z,9.00
2019-03-19T04:21:42.546Z,8.37
2019-03-19T04:24:10.373Z,8.10
2019-03-19T04:26:38.395Z,7.60
2019-03-19T04:29:06.790Z,8.00
2019-03-19T04:35:41.873Z,7.57
2019-03-19T04:38:22.467Z,8.17
2019-03-19T04:40:56.201Z,7.83
2019-03-19T04:43:24.363Z,8.23
2019-03-19T04:45:54.285Z,7.97
2019-03-19T04:48:26.642Z,7.43
2019-03-19T04:50:54.504Z,7.80
2019-03-19T04:53:24.336Z,8.17
2019-03-19T04:55:53.874Z,8.40
2019-03-19T04:58:21.979Z,7.33
2019-03-19T05:00:52.293Z,8.53
2019-03-19T05:03:20.552Z,7.73
2019-03-19T05:05:48.286Z,7.83
2019-03-19T05:08:16.017Z,7.37
2019-03-19T05:10:44.035Z,7.93
2019-03-19T05:13:11.782Z,7.80
2019-03-19T05:15:41.116Z,7.63
2019-03-19T05:18:08.874Z,6.97
2019-03-19T05:20:36.420Z,7.73
2019-03-19T05:23:04.226Z,7.83
2019-03-19T05:25:31.880Z,7.63
2019-03-19T05:27:59.611Z,7.80
2019-03-19T05:30:27.286Z,7.53
2019-03-19T05:32:55.442Z,7.53
2019-03-19T05:35:26.170Z,7.67
2019-03-19T05:37:53.833Z,7.87
2019-03-19T05:40:21.519Z,7.10
2019-03-19T05:42:52.129Z,7.73
2019-03-19T05:45:25.829Z,8.10
2019-03-19T05:48:00.798Z,7.90
2019-03-19T05:50:28.759Z,7.50
2019-03-19T05:52:58.901Z,7.60
2019-03-19T05:55:39.902Z,7.67
2019-03-19T05:58:17.240Z,7.93
2019-03-19T06:03:57.443Z,7.20
2019-03-19T06:06:27.282Z,7.17
2019-03-19T06:08:55.112Z,8.23
2019-03-19T06:11:22.932Z,7.23
2019-03-19T06:13:51.454Z,7.50
2019-03-19T06:16:24.817Z,7.30
2019-03-19T06:18:56.107Z,7.37
2019-03-19T06:21:28.187Z,7.57
2019-03-19T06:23:58.239Z,8.23
2019-03-19T06:26:26.083Z,7.10
2019-03-19T06:28:54.239Z,7.80
2019-03-19T06:31:23.205Z,7.83
2019-03-19T06:33:53.523Z,7.93
2019-03-19T06:36:21.559Z,7.60
2019-03-19T06:38:49.615Z,7.50
2019-03-19T06:41:17.267Z,7.43
2019-03-19T06:43:46.942Z,8.07
2019-03-19T06:46:16.639Z,7.67
2019-03-19T06:48:47.427Z,7.53
2019-03-19T06:51:24.816Z,7.77
2019-03-19T06:53:53.459Z,8.10
2019-03-19T06:56:24.365Z,7.50
2019-03-19T06:58:54.751Z,8.83
2019-03-19T07:01:22.669Z,8.20
2019-03-19T07:03:52.672Z,7.90
2019-03-19T07:06:20.891Z,7.73
2019-03-19T07:08:52.696Z,7.90
2019-03-19T07:11:21.347Z,8.30
2019-03-19T07:13:49.151Z,8.47
2019-03-19T07:16:16.872Z,8.93
2019-03-19T07:18:44.679Z,8.47
2019-03-19T07:21:12.366Z,9.20
2019-03-19T07:23:39.998Z,9.60
2019-03-19T07:26:08.905Z,8.97
2019-03-19T07:28:46.115Z,9.43
2019-03-19T07:31:34.736Z,9.40
2019-03-19T07:34:24.707Z,9.53
2019-03-19T07:36:50.145Z,9.63
2019-03-19T07:39:46.322Z,8.50
2019-03-19T07:42:47.717Z,9.60
2019-03-19T07:45:55.508Z,9.40
2019-03-19T07:49:19.061Z,9.27
2019-03-19T08:04:18.238Z,8.93
2019-03-19T08:08:18.120Z,9.23
2019-03-19T08:15:18.596Z,8.03
2019-03-19T08:18:37.411Z,7.80
2019-03-19T08:27:54.207Z,7.80
2019-03-19T08:35:53.053Z,7.87
2019-03-19T08:53:43.453Z,7.67
2019-03-19T08:56:42.226Z,7.03
2019-03-19T09:00:02.040Z,6.77
2019-03-19T09:18:34.146Z,6.40
2019-03-19T09:21:37.462Z,6.80
2019-03-19T09:28:11.382Z,6.33
2019-03-19T09:38:09.066Z,6.33
2019-03-19T09:41:43.730Z,6.87
2019-03-19T09:44:21.566Z,5.83
2019-03-19T09:46:56.734Z,6.77
2019-03-19T09:49:57.820Z,6.30
2019-03-19T09:57:11.069Z,6.60
2019-03-19T09:59:44.585Z,6.53
2019-03-19T10:02:15.952Z,6.03
2019-03-19T10:04:47.865Z,6.40
2019-03-19T10:07:19.286Z,5.97
2019-03-19T10:09:50.546Z,6.87
2019-03-19T10:12:34.490Z,5.70
2019-03-19T10:15:12.523Z,5.50
2019-03-19T10:17:47.451Z,5.30
2019-03-19T10:20:31.005Z,6.17
2019-03-19T10:22:54.631Z,6.83
2019-03-19T10:25:22.920Z,6.70
2019-03-19T10:28:23.507Z,6.37
2019-03-19T10:31:27.292Z,6.30
2019-03-19T10:34:27.507Z,5.53
2019-03-19T10:37:45.531Z,5.20
2019-03-19T10:40:21.521Z,5.40
2019-03-19T10:43:34.903Z,5.10
2019-03-19T10:46:52.955Z,5.37
2019-03-19T10:50:47.085Z,4.97
2019-03-19T10:53:23.796Z,4.97
2019-03-19T10:56:29.825Z,4.60
2019-03-19T11:18:27.684Z,3.43
2019-03-19T11:21:40.173Z,3.67
2019-03-19T11:24:27.501Z,3.23
2019-03-19T11:27:44.589Z,3.60
2019-03-19T11:34:38.618Z,3.60
2019-03-19T11:38:00.648Z,3.63
2019-03-19T11:44:38.970Z,2.80
2019-03-19T11:48:11.921Z,2.80
2019-03-19T11:50:58.871Z,2.00
2019-03-19T11:53:43.422Z,3.50
2019-03-19T11:56:26.173Z,2.40
2019-03-19T11:59:19.493Z,3.07
2019-03-19T12:02:03.967Z,3.33
2019-03-19T12:05:03.424Z,3.40
2019-03-19T12:11:32.016Z,2.70
2019-03-19T12:14:12.886Z,2.40
2019-03-19T12:16:51.002Z,2.73
2019-03-19T12:19:27.628Z,3.50
2019-03-19T12:22:01.938Z,2.50
2019-03-19T12:24:38.751Z,2.47
2019-03-19T12:27:11.652Z,2.80
2019-03-19T12:29:39.656Z,2.90
2019-03-19T12:32:14.129Z,3.07
2019-03-19T12:35:03.408Z,3.00
2019-03-19T12:37:52.130Z,2.20
2019-03-19T12:40:36.904Z,2.73
2019-03-19T12:43:11.952Z,2.67
2019-03-19T12:45:49.815Z,2.90
2019-03-19T12:48:26.438Z,2.50
2019-03-19T12:51:07.319Z,2.80
2019-03-19T12:53:45.119Z,2.87
2019-03-19T12:56:40.594Z,2.90
2019-03-19T12:59:20.397Z,3.37
2019-03-19T13:04:48.096Z,3.60
2019-03-19T13:07:44.522Z,3.33
2019-03-19T13:10:37.899Z,3.20
2019-03-19T13:13:35.846Z,3.27
2019-03-19T13:19:15.070Z,3.13
2019-03-19T13:21:55.942Z,3.37
2019-03-19T13:28:11.644Z,2.90
2019-03-19T13:31:11.592Z,2.90
2019-03-19T13:34:03.667Z,3.27
2019-03-19T13:36:38.584Z,4.20
2019-03-19T13:39:47.392Z,3.30
2019-03-19T13:43:03.673Z,2.70
2019-03-19T13:45:53.637Z,3.10
2019-03-19T13:48:48.996Z,3.47
2019-03-19T13:51:28.803Z,2.97
2019-03-19T13:54:46.438Z,2.63
2019-03-19T14:00:31.678Z,2.23
2019-03-19T14:03:07.050Z,2.20
2019-03-19T14:05:46.110Z,2.40
2019-03-19T14:08:39.341Z,2.50
2019-03-19T14:11:27.601Z,3.00
2019-03-19T14:14:06.748Z,2.83
2019-03-19T14:16:44.952Z,3.30
2019-03-19T14:19:30.155Z,3.37
2019-03-19T14:22:16.295Z,3.70
2019-03-19T14:24:58.481Z,3.27
2019-03-19T14:28:19.767Z,2.80
2019-03-19T14:31:15.205Z,2.90
2019-03-19T14:34:33.690Z,3.17
2019-03-19T14:36:53.422Z,3.27
2019-03-19T14:39:36.977Z,3.40
2019-03-19T14:42:19.496Z,3.10
2019-03-19T14:45:04.325Z,3.60
2019-03-19T14:47:49.003Z,3.47
2019-03-19T14:50:47.157Z,3.23
2019-03-19T14:53:35.630Z,3.23
2019-03-19T14:56:23.772Z,2.80
2019-03-19T14:59:15.695Z,2.93
2019-03-19T15:02:02.765Z,3.37
2019-03-19T15:04:59.367Z,3.47
2019-03-19T15:08:04.644Z,3.47
2019-03-19T15:13:31.134Z,3.00
2019-03-19T15:16:33.767Z,3.60
2019-03-19T15:19:17.583Z,3.10
2019-03-19T15:22:06.621Z,3.10
2019-03-19T15:24:48.462Z,3.10
2019-03-19T15:27:39.554Z,3.30
2019-03-19T15:34:31.517Z,3.73
2019-03-19T15:37:18.748Z,3.83
2019-03-19T15:39:56.445Z,3.63
2019-03-19T15:42:32.641Z,3.43
2019-03-19T15:45:28.572Z,4.10
2019-03-19T15:48:06.026Z,3.50
2019-03-19T15:50:36.634Z,3.13
2019-03-19T15:53:26.167Z,3.30
2019-03-19T15:55:58.167Z,3.50
2019-03-19T15:58:38.139Z,3.50
2019-03-19T16:01:10.878Z,3.60
2019-03-19T16:03:53.001Z,3.70
2019-03-19T16:06:27.762Z,3.53
2019-03-19T16:09:25.707Z,3.50
2019-03-19T16:12:46.088Z,3.97
2019-03-19T16:20:14.789Z,2.73
2019-03-19T16:23:25.252Z,3.00
2019-03-19T16:27:19.236Z,2.63
2019-03-19T16:30:23.015Z,3.63
2019-03-19T16:36:40.390Z,3.37
2019-03-19T16:39:31.569Z,3.40
2019-03-19T16:42:30.339Z,3.80
2019-03-19T16:45:20.958Z,3.17
2019-03-19T16:48:10.690Z,3.23
2019-03-19T16:51:15.535Z,3.40
2019-03-19T16:53:59.379Z,7.37
2019-03-19T16:57:03.513Z,4.90
2019-03-19T17:00:28.304Z,3.40
2019-03-19T17:03:48.494Z,3.03
2019-03-19T17:07:23.460Z,3.83
2019-03-19T17:10:43.490Z,3.80
2019-03-19T17:17:17.678Z,3.57
2019-03-19T17:19:45.401Z,3.10
2019-03-19T17:26:03.340Z,5.17
2019-03-19T17:28:50.236Z,5.40
2019-03-19T17:31:17.835Z,4.57
2019-03-19T17:34:10.976Z,5.57
2019-03-19T17:37:01.693Z,4.87
2019-03-19T17:39:47.708Z,6.03
2019-03-19T17:42:30.637Z,9.23
2019-03-19T17:45:10.928Z,7.73
2019-03-19T17:47:48.544Z,6.07
2019-03-19T17:50:26.466Z,7.00
2019-03-19T17:53:01.969Z,7.27
2019-03-19T17:55:44.702Z,6.80
2019-03-19T17:58:31.308Z,6.30
2019-03-19T18:04:12.238Z,7.23
2019-03-19T18:06:48.094Z,7.40
2019-03-19T18:09:27.286Z,5.33
2019-03-19T18:12:10.696Z,5.20
2019-03-19T18:14:56.554Z,5.23
2019-03-19T18:17:44.762Z,5.00
2019-03-19T18:20:24.142Z,5.63
2019-03-19T18:23:01.854Z,6.03
2019-03-19T18:25:42.368Z,6.27
2019-03-19T18:28:43.628Z,6.80
2019-03-19T18:31:22.845Z,5.77
2019-03-19T18:33:54.319Z,6.40
2019-03-19T18:36:37.238Z,5.80
2019-03-19T18:39:28.697Z,5.60
2019-03-19T18:42:28.751Z,5.83
2019-03-19T18:45:01.649Z,5.60
2019-03-19T18:48:40.273Z,5.03
2019-03-19T18:51:26.353Z,5.40
2019-03-19T18:53:59.277Z,5.87
2019-03-19T18:56:41.067Z,5.60
2019-03-19T18:59:17.758Z,6.10
2019-03-19T19:01:50.499Z,6.27
2019-03-19T19:04:25.037Z,5.87
2019-03-19T19:07:06.969Z,5.40
2019-03-19T19:09:36.059Z,6.00
2019-03-19T19:14:49.968Z,5.27
2019-03-19T19:15:46.236Z,5.70
2019-03-19T19:18:18.327Z,5.80
2019-03-19T19:21:32.517Z,6.10
2019-03-19T19:23:44.511Z,5.53
2019-03-19T19:26:15.539Z,6.77
2019-03-19T19:28:52.096Z,6.77
2019-03-19T19:31:23.078Z,5.97
2019-03-19T19:33:56.483Z,6.43
2019-03-19T19:36:25.807Z,6.37
2019-03-19T19:39:01.494Z,6.60
2019-03-19T19:41:49.463Z,6.83
2019-03-19T19:44:18.052Z,6.60
2019-03-19T19:46:52.547Z,9.07
2019-03-19T19:49:27.800Z,7.87
2019-03-19T19:52:07.660Z,8.40
2019-03-19T19:54:38.685Z,9.50
2019-03-19T19:57:16.529Z,8.47
2019-03-19T19:59:49.287Z,12.50
2019-03-19T20:02:32.657Z,12.57
2019-03-19T20:05:15.817Z,11.80
2019-03-19T20:08:00.192Z,12.73
2019-03-19T20:10:33.259Z,13.00
2019-03-19T20:13:09.355Z,12.37
2019-03-19T20:15:41.150Z,13.10
2019-03-19T20:18:09.144Z,13.97
2019-03-19T20:20:41.746Z,12.10
2019-03-19T20:23:16.916Z,13.23
2019-03-19T20:26:08.992Z,14.00
2019-03-19T20:28:59.919Z,12.87
2019-03-19T20:31:38.455Z,13.17
2019-03-19T20:34:10.079Z,12.40
2019-03-19T20:36:43.565Z,12.60
2019-03-19T20:39:23.786Z,12.53
2019-03-19T20:42:00.879Z,11.97
2019-03-19T20:44:35.931Z,11.63
2019-03-19T20:47:12.885Z,11.10
2019-03-19T20:49:47.780Z,10.70
2019-03-19T20:52:22.623Z,10.07
2019-03-19T20:54:54.844Z,7.70
2019-03-19T20:57:30.723Z,8.93
2019-03-19T21:00:07.523Z,8.37
2019-03-19T21:02:40.797Z,7.77
2019-03-19T21:05:27.882Z,7.60
2019-03-19T21:08:05.835Z,9.30
2019-03-19T21:10:38.674Z,9.17
2019-03-19T21:13:15.354Z,8.83
2019-03-19T21:15:50.442Z,9.40
2019-03-19T21:18:20.888Z,9.77
2019-03-19T21:20:58.938Z,10.20
2019-03-19T21:23:33.284Z,10.20
2019-03-19T21:26:07.416Z,11.83
2019-03-19T21:28:44.290Z,12.20
2019-03-19T21:31:21.364Z,14.50
2019-03-19T21:33:52.499Z,11.00
2019-03-19T21:36:25.207Z,9.13
2019-03-19T21:39:00.820Z,8.10
2019-03-19T21:41:30.976Z,8.87
2019-03-19T21:44:04.617Z,7.90
2019-03-19T21:46:40.620Z,7.60
2019-03-19T21:49:11.132Z,7.43
2019-03-19T21:51:47.762Z,7.77
2019-03-19T21:54:23.095Z,8.27
2019-03-19T21:56:58.660Z,7.80
2019-03-19T21:59:34.156Z,7.27
2019-03-19T22:02:10.350Z,8.27
2019-03-19T22:04:44.274Z,8.07
2019-03-19T22:07:17.273Z,8.07
2019-03-19T22:09:50.006Z,7.73
2019-03-19T22:12:34.743Z,8.20
2019-03-19T22:15:20.685Z,9.00
2019-03-19T22:17:57.601Z,7.90
2019-03-19T22:20:29.503Z,8.53
2019-03-19T22:23:06.741Z,8.43
2019-03-19T22:25:52.077Z,8.40
2019-03-19T22:28:27.334Z,8.30
2019-03-19T22:31:00.199Z,8.70
2019-03-19T22:33:41.031Z,7.87
2019-03-19T22:36:21.018Z,8.90
2019-03-19T22:39:01.111Z,8.03
2019-03-19T22:41:36.087Z,7.60
2019-03-19T22:44:11.981Z,7.80
2019-03-19T22:46:51.617Z,7.37
2019-03-19T23:46:53.874Z,6.80
2019-03-19T23:49:29.161Z,7.40
2019-03-19T23:52:01.804Z,7.27
2019-03-19T23:54:35.514Z,6.80
2019-03-19T23:57:07.618Z,7.37
2019-03-19T23:59:41.185Z,6.57
